sensor_id;sensor_type;location;lat;lon;timestamp;pressure;altitude;pressure_sealevel;temperature;humidity
72925;BME280;61070;50.794;7.054;2022-07-12T00:00:52;101769.53;;;15.57;78.90
72925;BME280;61070;50.794;7.054;2022-07-12T00:03:18;101776.72;;;15.52;78.48
72925;BME280;61070;50.794;7.054;2022-07-12T00:05:43;101776.72;;;15.52;78.62
72925;BME280;61070;50.794;7.054;2022-07-12T00:08:08;101775.00;;;15.48;78.28
72925;BME280;61070;50.794;7.054;2022-07-12T00:10:34;101779.44;;;15.47;79.22
72925;BME280;61070;50.794;7.054;2022-07-12T00:12:59;101776.88;;;15.42;79.53
72925;BME280;61070;50.794;7.054;2022-07-12T00:15:25;101782.28;;;15.36;79.36
72925;BME280;61070;50.794;7.054;2022-07-12T00:17:50;101772.53;;;15.34;79.38
72925;BME280;61070;50.794;7.054;2022-07-12T00:20:16;101780.59;;;15.31;79.14
72925;BME280;61070;50.794;7.054;2022-07-12T00:22:41;101779.69;;;15.29;79.36
72925;BME280;61070;50.794;7.054;2022-07-12T00:25:07;101773.47;;;15.28;79.18
72925;BME280;61070;50.794;7.054;2022-07-12T00:27:33;101781.53;;;15.27;79.24
72925;BME280;61070;50.794;7.054;2022-07-12T00:29:58;101770.94;;;15.21;79.46
72925;BME280;61070;50.794;7.054;2022-07-12T00:32:23;101773.66;;;15.18;79.09
72925;BME280;61070;50.794;7.054;2022-07-12T00:34:49;101772.75;;;15.17;79.32
72925;BME280;61070;50.794;7.054;2022-07-12T00:37:14;101768.38;;;15.13;79.36
72925;BME280;61070;50.794;7.054;2022-07-12T00:39:39;101763.06;;;15.11;79.16
72925;BME280;61070;50.794;7.054;2022-07-12T00:42:05;101759.56;;;15.08;79.24
72925;BME280;61070;50.794;7.054;2022-07-12T00:44:30;101757.84;;;15.01;79.33
72925;BME280;61070;50.794;7.054;2022-07-12T00:46:59;101763.25;;;14.98;79.59
72925;BME280;61070;50.794;7.054;2022-07-12T00:49:25;101758.75;;;15.00;80.03
72925;BME280;61070;50.794;7.054;2022-07-12T00:51:50;101760.56;;;14.98;79.88
72925;BME280;61070;50.794;7.054;2022-07-12T00:54:16;101755.28;;;14.93;79.58
72925;BME280;61070;50.794;7.054;2022-07-12T00:56:43;101757.13;;;14.90;79.25
72925;BME280;61070;50.794;7.054;2022-07-12T00:59:09;101758.06;;;14.85;79.17
72925;BME280;61070;50.794;7.054;2022-07-12T01:01:34;101759.88;;;14.80;79.39
72925;BME280;61070;50.794;7.054;2022-07-12T01:04:00;101761.75;;;14.75;78.87
72925;BME280;61070;50.794;7.054;2022-07-12T01:06:26;101753.78;;;14.72;79.30
72925;BME280;61070;50.794;7.054;2022-07-12T01:08:52;101752.88;;;14.73;80.64
72925;BME280;61070;50.794;7.054;2022-07-12T01:11:17;101745.81;;;14.69;81.03
72925;BME280;61070;50.794;7.054;2022-07-12T01:13:44;101744.94;;;14.67;81.40
72925;BME280;61070;50.794;7.054;2022-07-12T01:16:10;101739.66;;;14.64;81.17
72925;BME280;61070;50.794;7.054;2022-07-12T01:18:37;101739.59;;;14.69;81.41
72925;BME280;61070;50.794;7.054;2022-07-12T01:21:04;101739.59;;;14.67;81.66
72925;BME280;61070;50.794;7.054;2022-07-12T01:23:31;101747.66;;;14.64;81.33
72925;BME280;61070;50.794;7.054;2022-07-12T01:25:59;101751.19;;;14.66;81.56
72925;BME280;61070;50.794;7.054;2022-07-12T01:28:24;101747.63;;;14.66;82.44
72925;BME280;61070;50.794;7.054;2022-07-12T01:30:50;101747.69;;;14.61;82.18
72925;BME280;61070;50.794;7.054;2022-07-12T01:33:15;101741.47;;;14.59;82.00
72925;BME280;61070;50.794;7.054;2022-07-12T01:35:42;101739.75;;;14.55;82.36
72925;BME280;61070;50.794;7.054;2022-07-12T01:38:08;101742.47;;;14.52;82.41
72925;BME280;61070;50.794;7.054;2022-07-12T01:40:34;101743.38;;;14.51;82.52
72925;BME280;61070;50.794;7.054;2022-07-12T01:43:01;101738.94;;;14.50;82.64
72925;BME280;61070;50.794;7.054;2022-07-12T01:45:26;101748.75;;;14.43;82.98
72925;BME280;61070;50.794;7.054;2022-07-12T01:47:52;101746.13;;;14.40;83.52
72925;BME280;61070;50.794;7.054;2022-07-12T01:50:18;101755.03;;;14.39;83.47
72925;BME280;61070;50.794;7.054;2022-07-12T01:52:44;101752.34;;;14.38;82.93
72925;BME280;61070;50.794;7.054;2022-07-12T01:55:11;101760.34;;;14.38;82.99
72925;BME280;61070;50.794;7.054;2022-07-12T01:57:38;101759.50;;;14.34;82.86
72925;BME280;61070;50.794;7.054;2022-07-12T02:00:05;101757.75;;;14.32;82.81
72925;BME280;61070;50.794;7.054;2022-07-12T02:02:31;101754.22;;;14.26;82.18
72925;BME280;61070;50.794;7.054;2022-07-12T02:04:59;101756.13;;;14.15;82.76
72925;BME280;61070;50.794;7.054;2022-07-12T02:07:24;101755.25;;;14.16;82.73
72925;BME280;61070;50.794;7.054;2022-07-12T02:09:50;101748.16;;;14.12;82.03
72925;BME280;61070;50.794;7.054;2022-07-12T02:12:16;101750.84;;;14.12;81.90
72925;BME280;61070;50.794;7.054;2022-07-12T02:14:41;101760.63;;;14.10;81.38
72925;BME280;61070;50.794;7.054;2022-07-12T02:17:07;101747.34;;;14.06;82.24
72925;BME280;61070;50.794;7.054;2022-07-12T02:19:32;101763.34;;;14.03;82.30
72925;BME280;61070;50.794;7.054;2022-07-12T02:21:58;101762.50;;;13.99;81.91
72925;BME280;61070;50.794;7.054;2022-07-12T02:24:23;101761.59;;;14.00;81.91
72925;BME280;61070;50.794;7.054;2022-07-12T02:26:49;101762.47;;;14.01;81.84
72925;BME280;61070;50.794;7.054;2022-07-12T02:29:14;101757.22;;;13.96;82.40
72925;BME280;61070;50.794;7.054;2022-07-12T02:31:40;101760.75;;;13.96;82.41
72925;BME280;61070;50.794;7.054;2022-07-12T02:34:05;101763.41;;;13.96;82.03
72925;BME280;61070;50.794;7.054;2022-07-12T02:36:31;101761.66;;;13.95;81.96
72925;BME280;61070;50.794;7.054;2022-07-12T02:38:57;101766.13;;;13.93;82.50
72925;BME280;61070;50.794;7.054;2022-07-12T02:41:22;101759.00;;;13.91;82.85
72925;BME280;61070;50.794;7.054;2022-07-12T02:43:48;101770.59;;;13.88;83.25
72925;BME280;61070;50.794;7.054;2022-07-12T02:46:13;101773.31;;;13.84;83.12
72925;BME280;61070;50.794;7.054;2022-07-12T02:48:41;101773.31;;;13.79;83.42
72925;BME280;61070;50.794;7.054;2022-07-12T02:51:07;101776.84;;;13.81;83.24
72925;BME280;61070;50.794;7.054;2022-07-12T02:53:34;101773.34;;;13.78;83.54
72925;BME280;61070;50.794;7.054;2022-07-12T02:56:00;101774.25;;;13.74;83.56
72925;BME280;61070;50.794;7.054;2022-07-12T02:58:25;101778.72;;;13.73;83.25
72925;BME280;61070;50.794;7.054;2022-07-12T03:00:51;101779.63;;;13.71;83.39
72925;BME280;61070;50.794;7.054;2022-07-12T03:03:16;101778.78;;;13.62;84.46
72925;BME280;61070;50.794;7.054;2022-07-12T03:05:42;101772.56;;;13.63;84.41
72925;BME280;61070;50.794;7.054;2022-07-12T03:08:08;101776.09;;;13.65;84.08
72925;BME280;61070;50.794;7.054;2022-07-12T03:10:35;101782.31;;;13.64;83.80
72925;BME280;61070;50.794;7.054;2022-07-12T03:13:00;101780.56;;;13.63;83.42
72925;BME280;61070;50.794;7.054;2022-07-12T03:15:26;101785.91;;;13.60;83.83
72925;BME280;61070;50.794;7.054;2022-07-12T03:17:51;101779.72;;;13.55;83.94
72925;BME280;61070;50.794;7.054;2022-07-12T03:20:16;101770.00;;;13.51;83.78
72925;BME280;61070;50.794;7.054;2022-07-12T03:22:42;101775.31;;;13.51;83.78
72925;BME280;61070;50.794;7.054;2022-07-12T03:25:09;101772.66;;;13.50;83.94
72925;BME280;61070;50.794;7.054;2022-07-12T03:27:34;101768.22;;;13.50;83.90
72925;BME280;61070;50.794;7.054;2022-07-12T03:30:00;101772.66;;;13.51;83.42
72925;BME280;61070;50.794;7.054;2022-07-12T03:32:25;101770.88;;;13.50;83.41
72925;BME280;61070;50.794;7.054;2022-07-12T03:34:51;101773.56;;;13.44;83.81
72925;BME280;61070;50.794;7.054;2022-07-12T03:37:16;101775.41;;;13.39;83.93
72925;BME280;61070;50.794;7.054;2022-07-12T03:39:41;101785.16;;;13.35;84.01
72925;BME280;61070;50.794;7.054;2022-07-12T03:42:07;101782.50;;;13.38;84.17
72925;BME280;61070;50.794;7.054;2022-07-12T03:44:32;101780.69;;;13.42;83.55
72925;BME280;61070;50.794;7.054;2022-07-12T03:46:59;101792.25;;;13.39;83.87
72925;BME280;61070;50.794;7.054;2022-07-12T03:49:24;101790.50;;;13.37;84.15
72925;BME280;61070;50.794;7.054;2022-07-12T03:51:49;101785.16;;;13.35;83.73
72925;BME280;61070;50.794;7.054;2022-07-12T03:54:15;101784.25;;;13.39;83.90
72925;BME280;61070;50.794;7.054;2022-07-12T03:56:40;101790.41;;;13.45;83.62
72925;BME280;61070;50.794;7.054;2022-07-12T03:59:24;101792.25;;;13.39;84.51
72925;BME280;61070;50.794;7.054;2022-07-12T04:01:49;101790.41;;;13.51;83.66
72925;BME280;61070;50.794;7.054;2022-07-12T04:04:15;101795.66;;;13.63;83.15
72925;BME280;61070;50.794;7.054;2022-07-12T04:06:40;101799.94;;;13.81;82.44
72925;BME280;61070;50.794;7.054;2022-07-12T04:09:06;101798.09;;;13.89;82.53
72925;BME280;61070;50.794;7.054;2022-07-12T04:11:32;101802.47;;;13.99;81.81
72925;BME280;61070;50.794;7.054;2022-07-12T04:13:58;101802.47;;;13.99;81.92
72925;BME280;61070;50.794;7.054;2022-07-12T04:16:23;101803.34;;;14.01;81.78
72925;BME280;61070;50.794;7.054;2022-07-12T04:18:49;101798.94;;;13.97;81.87
72925;BME280;61070;50.794;7.054;2022-07-12T04:21:14;101805.13;;;13.99;81.65
72925;BME280;61070;50.794;7.054;2022-07-12T04:23:39;101814.88;;;14.02;81.78
72925;BME280;61070;50.794;7.054;2022-07-12T04:26:05;101809.59;;;13.92;82.61
72925;BME280;61070;50.794;7.054;2022-07-12T04:28:30;101811.38;;;13.95;82.45
72925;BME280;61070;50.794;7.054;2022-07-12T04:30:56;101803.31;;;14.06;81.75
72925;BME280;61070;50.794;7.054;2022-07-12T04:33:21;101814.84;;;14.06;81.74
72925;BME280;61070;50.794;7.054;2022-07-12T04:35:47;101813.06;;;14.04;82.26
72925;BME280;61070;50.794;7.054;2022-07-12T04:38:12;101813.97;;;14.06;82.36
72925;BME280;61070;50.794;7.054;2022-07-12T04:40:38;101820.19;;;14.03;82.38
72925;BME280;61070;50.794;7.054;2022-07-12T04:43:03;101824.69;;;13.98;82.52
72925;BME280;61070;50.794;7.054;2022-07-12T04:45:28;101819.09;;;14.25;81.50
72925;BME280;61070;50.794;7.054;2022-07-12T04:47:54;101806.72;;;14.21;81.38
72925;BME280;61070;50.794;7.054;2022-07-12T04:50:19;101808.50;;;14.19;81.54
72925;BME280;61070;50.794;7.054;2022-07-12T04:52:45;101814.75;;;14.14;82.36
72925;BME280;61070;50.794;7.054;2022-07-12T04:55:11;101821.81;;;14.21;81.64
72925;BME280;61070;50.794;7.054;2022-07-12T04:57:37;101825.31;;;14.27;81.46
72925;BME280;61070;50.794;7.054;2022-07-12T05:00:06;101820.88;;;14.30;82.02
72925;BME280;61070;50.794;7.054;2022-07-12T05:02:33;101822.50;;;14.46;81.28
72925;BME280;61070;50.794;7.054;2022-07-12T05:04:58;101820.56;;;14.60;80.80
72925;BME280;61070;50.794;7.054;2022-07-12T05:07:24;101827.63;;;14.67;81.02
72925;BME280;61070;50.794;7.054;2022-07-12T05:09:49;101834.47;;;14.91;80.15
72925;BME280;61070;50.794;7.054;2022-07-12T05:12:16;101835.38;;;14.89;80.41
72925;BME280;61070;50.794;7.054;2022-07-12T05:14:41;101844.19;;;14.97;79.87
72925;BME280;61070;50.794;7.054;2022-07-12T05:17:07;101850.25;;;15.11;80.06
72925;BME280;61070;50.794;7.054;2022-07-12T05:19:32;101843.84;;;15.24;79.18
72925;BME280;61070;50.794;7.054;2022-07-12T05:21:57;101847.34;;;15.28;79.35
72925;BME280;61070;50.794;7.054;2022-07-12T05:24:23;101847.19;;;15.40;79.15
72925;BME280;61070;50.794;7.054;2022-07-12T05:26:48;101846.34;;;15.36;79.33
72925;BME280;61070;50.794;7.054;2022-07-12T05:29:13;101835.72;;;15.33;79.83
72925;BME280;61070;50.794;7.054;2022-07-12T05:31:39;101834.97;;;15.24;80.29
72925;BME280;61070;50.794;7.054;2022-07-12T05:34:04;101842.00;;;15.31;80.21
72925;BME280;61070;50.794;7.054;2022-07-12T05:36:30;101846.34;;;15.38;80.20
72925;BME280;61070;50.794;7.054;2022-07-12T05:38:55;101843.53;;;15.47;79.91
72925;BME280;61070;50.794;7.054;2022-07-12T05:41:21;101844.28;;;15.60;79.54
72925;BME280;61070;50.794;7.054;2022-07-12T05:43:46;101841.59;;;15.63;79.00
72925;BME280;61070;50.794;7.054;2022-07-12T05:46:11;101837.06;;;15.68;79.37
72925;BME280;61070;50.794;7.054;2022-07-12T05:48:38;101840.53;;;15.73;79.63
72925;BME280;61070;50.794;7.054;2022-07-12T05:51:03;101841.25;;;15.86;79.17
72925;BME280;61070;50.794;7.054;2022-07-12T05:53:47;101841.16;;;15.90;79.33
72925;BME280;61070;50.794;7.054;2022-07-12T05:56:13;101844.50;;;16.05;79.09
72925;BME280;61070;50.794;7.054;2022-07-12T05:58:38;101842.66;;;16.10;78.79
72925;BME280;61070;50.794;7.054;2022-07-12T06:01:04;101845.22;;;16.16;78.42
72925;BME280;61070;50.794;7.054;2022-07-12T06:03:30;101842.28;;;16.29;78.21
72925;BME280;61070;50.794;7.054;2022-07-12T06:05:56;101852.03;;;16.35;78.43
72925;BME280;61070;50.794;7.054;2022-07-12T06:08:21;101841.19;;;16.41;78.29
72925;BME280;61070;50.794;7.054;2022-07-12T06:10:46;101840.78;;;16.64;77.53
72925;BME280;61070;50.794;7.054;2022-07-12T06:13:12;101842.50;;;16.70;77.03
72925;BME280;61070;50.794;7.054;2022-07-12T06:15:37;101843.97;;;16.86;76.95
72925;BME280;61070;50.794;7.054;2022-07-12T06:18:03;101841.16;;;16.94;76.03
72925;BME280;61070;50.794;7.054;2022-07-12T06:20:29;101845.56;;;16.96;76.62
72925;BME280;61070;50.794;7.054;2022-07-12T06:22:54;101844.44;;;17.06;76.15
72925;BME280;61070;50.794;7.054;2022-07-12T06:25:20;101842.47;;;17.16;75.98
72925;BME280;61070;50.794;7.054;2022-07-12T06:27:46;101841.47;;;17.22;75.41
72925;BME280;61070;50.794;7.054;2022-07-12T06:30:14;101839.47;;;17.33;75.24
72925;BME280;61070;50.794;7.054;2022-07-12T06:32:40;101841.88;;;17.45;74.79
72925;BME280;61070;50.794;7.054;2022-07-12T06:35:05;101848.91;;;17.49;74.96
72925;BME280;61070;50.794;7.054;2022-07-12T06:37:31;101850.31;;;17.67;74.39
72925;BME280;61070;50.794;7.054;2022-07-12T06:39:56;101856.38;;;17.75;74.36
72925;BME280;61070;50.794;7.054;2022-07-12T06:42:25;101851.06;;;17.73;74.16
72925;BME280;61070;50.794;7.054;2022-07-12T06:44:50;101860.00;;;17.74;73.93
72925;BME280;61070;50.794;7.054;2022-07-12T06:47:15;101857.97;;;17.84;73.54
72925;BME280;61070;50.794;7.054;2022-07-12T06:49:41;101856.75;;;17.97;73.37
72925;BME280;61070;50.794;7.054;2022-07-12T06:52:06;101856.13;;;18.23;72.83
72925;BME280;61070;50.794;7.054;2022-07-12T06:54:31;101848.75;;;18.31;72.07
72925;BME280;61070;50.794;7.054;2022-07-12T06:56:57;101849.28;;;18.45;71.13
72925;BME280;61070;50.794;7.054;2022-07-12T06:59:22;101853.59;;;18.52;71.31
72925;BME280;61070;50.794;7.054;2022-07-12T07:01:48;101861.16;;;18.72;70.55
72925;BME280;61070;50.794;7.054;2022-07-12T07:04:14;101860.31;;;18.70;70.62
72925;BME280;61070;50.794;7.054;2022-07-12T07:06:40;101866.84;;;18.58;71.00
72925;BME280;61070;50.794;7.054;2022-07-12T07:09:05;101870.41;;;18.59;70.57
72925;BME280;61070;50.794;7.054;2022-07-12T07:11:32;101870.47;;;18.90;69.20
72925;BME280;61070;50.794;7.054;2022-07-12T07:13:58;101874.13;;;18.87;68.85
72925;BME280;61070;50.794;7.054;2022-07-12T07:16:23;101890.50;;;19.11;69.47
72925;BME280;61070;50.794;7.054;2022-07-12T07:18:49;101895.63;;;19.20;68.20
72925;BME280;61070;50.794;7.054;2022-07-12T07:21:15;101899.13;;;19.22;68.08
72925;BME280;61070;50.794;7.054;2022-07-12T07:23:41;101892.22;;;19.44;68.00
72925;BME280;61070;50.794;7.054;2022-07-12T07:26:06;101891.81;;;19.60;66.90
72925;BME280;61070;50.794;7.054;2022-07-12T07:28:31;101893.34;;;19.67;66.67
72925;BME280;61070;50.794;7.054;2022-07-12T07:30:57;101905.44;;;19.82;65.88
72925;BME280;61070;50.794;7.054;2022-07-12T07:33:24;101916.50;;;19.72;66.04
72925;BME280;61070;50.794;7.054;2022-07-12T07:35:51;101917.38;;;19.73;66.39
72925;BME280;61070;50.794;7.054;2022-07-12T07:38:17;101906.53;;;19.76;65.14
72925;BME280;61070;50.794;7.054;2022-07-12T07:40:43;101900.78;;;19.88;65.04
72925;BME280;61070;50.794;7.054;2022-07-12T07:43:09;101896.75;;;20.01;64.57
72925;BME280;61070;50.794;7.054;2022-07-12T07:45:34;101890.22;;;20.10;64.10
72925;BME280;61070;50.794;7.054;2022-07-12T07:48:00;101889.91;;;20.19;64.50
72925;BME280;61070;50.794;7.054;2022-07-12T07:50:26;101889.28;;;20.38;64.18
72925;BME280;61070;50.794;7.054;2022-07-12T07:52:51;101886.06;;;20.54;62.67
72925;BME280;61070;50.794;7.054;2022-07-12T07:55:17;101895.44;;;20.69;62.50
72925;BME280;61070;50.794;7.054;2022-07-12T07:57:43;101888.16;;;20.71;61.95
72925;BME280;61070;50.794;7.054;2022-07-12T08:00:09;101887.66;;;20.86;62.36
72925;BME280;61070;50.794;7.054;2022-07-12T08:02:34;101885.41;;;21.22;61.09
72925;BME280;61070;50.794;7.054;2022-07-12T08:05:00;101883.34;;;21.31;60.80
72925;BME280;61070;50.794;7.054;2022-07-12T08:07:25;101880.41;;;21.60;59.85
72925;BME280;61070;50.794;7.054;2022-07-12T08:09:51;101873.06;;;21.87;59.61
72925;BME280;61070;50.794;7.054;2022-07-12T08:12:16;101884.16;;;22.01;58.87
72925;BME280;61070;50.794;7.054;2022-07-12T08:14:41;101880.88;;;22.17;59.02
72925;BME280;61070;50.794;7.054;2022-07-12T08:17:07;101884.44;;;22.17;58.40
72925;BME280;61070;50.794;7.054;2022-07-12T08:19:32;101871.56;;;22.46;56.57
72925;BME280;61070;50.794;7.054;2022-07-12T08:21:57;101870.28;;;22.54;56.50
72925;BME280;61070;50.794;7.054;2022-07-12T08:24:23;101859.88;;;22.45;56.60
72925;BME280;61070;50.794;7.054;2022-07-12T08:26:48;101864.94;;;22.32;55.12
72925;BME280;61070;50.794;7.054;2022-07-12T08:29:14;101867.31;;;22.18;56.26
72925;BME280;61070;50.794;7.054;2022-07-12T08:31:40;101868.28;;;22.37;57.00
72925;BME280;61070;50.794;7.054;2022-07-12T08:34:05;101858.59;;;22.74;56.40
72925;BME280;61070;50.794;7.054;2022-07-12T08:36:30;101869.94;;;22.82;56.25
72925;BME280;61070;50.794;7.054;2022-07-12T08:38:56;101868.03;;;22.86;54.81
72925;BME280;61070;50.794;7.054;2022-07-12T08:41:21;101867.94;;;22.87;55.65
72925;BME280;61070;50.794;7.054;2022-07-12T08:43:46;101861.88;;;23.03;54.40
72925;BME280;61070;50.794;7.054;2022-07-12T08:46:13;101862.28;;;22.93;54.63
72925;BME280;61070;50.794;7.054;2022-07-12T08:48:40;101867.38;;;23.20;54.39
72925;BME280;61070;50.794;7.054;2022-07-12T08:51:08;101868.97;;;23.44;52.06
72925;BME280;61070;50.794;7.054;2022-07-12T08:53:34;101867.25;;;23.42;51.68
72925;BME280;61070;50.794;7.054;2022-07-12T08:56:00;101868.28;;;23.39;51.55
72925;BME280;61070;50.794;7.054;2022-07-12T08:58:25;101859.53;;;23.34;51.82
72925;BME280;61070;50.794;7.054;2022-07-12T09:00:51;101866.09;;;23.08;51.84
72925;BME280;61070;50.794;7.054;2022-07-12T09:03:17;101859.41;;;23.17;51.25
72925;BME280;61070;50.794;7.054;2022-07-12T09:05:49;101857.13;;;23.08;50.94
72925;BME280;61070;50.794;7.054;2022-07-12T09:08:17;101852.25;;;23.16;50.69
72925;BME280;61070;50.794;7.054;2022-07-12T09:11:01;101858.16;;;23.05;51.29
72925;BME280;61070;50.794;7.054;2022-07-12T09:13:54;101857.38;;;23.41;51.70
72925;BME280;61070;50.794;7.054;2022-07-12T09:16:24;101857.22;;;23.83;50.26
72925;BME280;61070;50.794;7.054;2022-07-12T09:18:51;101854.63;;;23.99;49.15
72925;BME280;61070;50.794;7.054;2022-07-12T09:21:35;101850.75;;;24.22;49.29
72925;BME280;61070;50.794;7.054;2022-07-12T09:24:01;101851.09;;;24.16;48.57
72925;BME280;61070;50.794;7.054;2022-07-12T09:26:31;101849.38;;;23.77;49.66
72925;BME280;61070;50.794;7.054;2022-07-12T09:29:05;101844.47;;;24.21;49.45
72925;BME280;61070;50.794;7.054;2022-07-12T09:31:42;101833.53;;;24.23;47.63
72925;BME280;61070;50.794;7.054;2022-07-12T09:34:28;101828.34;;;24.54;47.38
72925;BME280;61070;50.794;7.054;2022-07-12T09:37:12;101830.16;;;24.88;46.38
72925;BME280;61070;50.794;7.054;2022-07-12T09:39:38;101823.59;;;25.10;45.95
72925;BME280;61070;50.794;7.054;2022-07-12T09:42:05;101826.25;;;24.94;44.68
72925;BME280;61070;50.794;7.054;2022-07-12T09:44:33;101822.91;;;25.06;44.74
72925;BME280;61070;50.794;7.054;2022-07-12T09:46:58;101826.41;;;25.24;44.89
72925;BME280;61070;50.794;7.054;2022-07-12T09:49:25;101818.47;;;25.37;44.08
72925;BME280;61070;50.794;7.054;2022-07-12T09:51:56;101818.53;;;25.19;43.06
72925;BME280;61070;50.794;7.054;2022-07-12T09:54:26;101830.50;;;24.82;43.41
72925;BME280;61070;50.794;7.054;2022-07-12T09:56:53;101825.84;;;25.02;43.97
72925;BME280;61070;50.794;7.054;2022-07-12T09:59:22;101834.44;;;25.10;43.72
72925;BME280;61070;50.794;7.054;2022-07-12T10:01:49;101821.81;;;25.26;44.24
72925;BME280;61070;50.794;7.054;2022-07-12T10:04:20;101834.31;;;25.29;43.56
72925;BME280;61070;50.794;7.054;2022-07-12T10:06:47;101838.69;;;25.47;43.68
72925;BME280;61070;50.794;7.054;2022-07-12T10:09:13;101843.00;;;25.67;43.41
72925;BME280;61070;50.794;7.054;2022-07-12T10:11:39;101832.75;;;25.56;42.77
72925;BME280;61070;50.794;7.054;2022-07-12T10:14:05;101835.66;;;25.69;43.48
72925;BME280;61070;50.794;7.054;2022-07-12T10:16:34;101840.34;;;25.82;42.76
72925;BME280;61070;50.794;7.054;2022-07-12T10:19:30;101838.38;;;26.00;42.18
72925;BME280;61070;50.794;7.054;2022-07-12T10:21:58;101846.09;;;25.92;42.56
72925;BME280;61070;50.794;7.054;2022-07-12T10:29:48;101831.97;;;26.63;40.80
72925;BME280;61070;50.794;7.054;2022-07-12T10:35:00;101836.13;;;26.54;39.95
72925;BME280;61070;50.794;7.054;2022-07-12T10:37:26;101829.41;;;26.30;40.60
72925;BME280;61070;50.794;7.054;2022-07-12T10:40:27;101826.59;;;26.61;40.05
72925;BME280;61070;50.794;7.054;2022-07-12T10:45:35;101830.47;;;26.57;38.28
72925;BME280;61070;50.794;7.054;2022-07-12T10:48:03;101823.72;;;26.79;38.20
72925;BME280;61070;50.794;7.054;2022-07-12T10:58:42;101816.56;;;27.06;38.40
72925;BME280;61070;50.794;7.054;2022-07-12T11:01:19;101817.94;;;26.99;39.27
72925;BME280;61070;50.794;7.054;2022-07-12T11:03:55;101818.03;;;27.26;38.30
72925;BME280;61070;50.794;7.054;2022-07-12T11:06:24;101813.13;;;27.60;38.12
72925;BME280;61070;50.794;7.054;2022-07-12T11:09:03;101813.78;;;27.63;37.05
72925;BME280;61070;50.794;7.054;2022-07-12T11:14:08;101809.59;;;27.16;37.80
72925;BME280;61070;50.794;7.054;2022-07-12T11:16:53;101800.44;;;27.17;38.26
72925;BME280;61070;50.794;7.054;2022-07-12T11:19:30;101808.81;;;27.43;38.08
72925;BME280;61070;50.794;7.054;2022-07-12T11:21:56;101802.25;;;-83.30;37.93
72925;BME280;61070;50.794;7.054;2022-07-12T11:24:24;101803.97;;;27.61;36.98
72925;BME280;61070;50.794;7.054;2022-07-12T11:26:50;101803.31;;;27.71;36.59
72925;BME280;61070;50.794;7.054;2022-07-12T11:29:16;101801.69;;;-59.88;36.48
72925;BME280;61070;50.794;7.054;2022-07-12T11:31:47;101797.75;;;88.60;36.07
72925;BME280;61070;50.794;7.054;2022-07-12T11:36:46;101798.25;;;69.05;34.95
72925;BME280;61070;50.794;7.054;2022-07-12T11:39:12;101793.47;;;45.60;34.51
72925;BME280;61070;50.794;7.054;2022-07-12T11:41:37;101785.16;;;27.84;35.23
72925;BME280;61070;50.794;7.054;2022-07-12T11:44:03;101787.66;;;27.75;36.28
72925;BME280;61070;50.794;7.054;2022-07-12T11:46:28;101779.84;;;27.83;35.61
72925;BME280;61070;50.794;7.054;2022-07-12T11:48:54;101785.50;;;-31.24;35.56
72925;BME280;61070;50.794;7.054;2022-07-12T11:51:19;101783.19;;;28.01;34.97
72925;BME280;61070;50.794;7.054;2022-07-12T11:53:51;101777.75;;;28.13;34.71
72925;BME280;61070;50.794;7.054;2022-07-12T11:56:16;101773.28;;;28.65;34.74
72925;BME280;61070;50.794;7.054;2022-07-12T11:58:42;101772.75;;;-127.52;34.30
72925;BME280;61070;50.794;7.054;2022-07-12T12:01:11;101769.13;;;28.34;34.48
72925;BME280;61070;50.794;7.054;2022-07-12T12:03:43;101764.03;;;28.80;32.68
72925;BME280;61070;50.794;7.054;2022-07-12T12:06:10;101763.47;;;-88.50;32.81
72925;BME280;61070;50.794;7.054;2022-07-12T12:08:35;101764.16;;;-79.40;33.01
72925;BME280;61070;50.794;7.054;2022-07-12T12:11:01;101762.41;;;-49.47;31.62
72925;BME280;61070;50.794;7.054;2022-07-12T12:13:29;101757.03;;;28.63;32.34
72925;BME280;61070;50.794;7.054;2022-07-12T12:15:59;101754.63;;;-97.61;32.08
72925;BME280;61070;50.794;7.054;2022-07-12T12:18:28;101765.44;;;28.98;30.75
72925;BME280;61070;50.794;7.054;2022-07-12T12:20:58;101752.50;;;28.89;31.39
72925;BME280;61070;50.794;7.054;2022-07-12T12:23:27;101753.44;;;-54.67;30.34
72925;BME280;61070;50.794;7.054;2022-07-12T12:26:17;101743.47;;;7.82;30.53
72925;BME280;61070;50.794;7.054;2022-07-12T12:28:43;101742.59;;;100.33;27.79
72925;BME280;61070;50.794;7.054;2022-07-12T12:31:10;101739.28;;;26.05;28.94
72925;BME280;61070;50.794;7.054;2022-07-12T12:33:45;101737.25;;;29.60;28.87
72925;BME280;61070;50.794;7.054;2022-07-12T12:38:54;101743.38;;;30.23;28.11
72925;BME280;61070;50.794;7.054;2022-07-12T12:41:20;101727.81;;;-104.11;27.51
72925;BME280;61070;50.794;7.054;2022-07-12T12:44:00;101734.97;;;-130.12;28.69
72925;BME280;61070;50.794;7.054;2022-07-12T12:46:45;101736.59;;;54.72;28.63
72925;BME280;61070;50.794;7.054;2022-07-12T12:49:11;101739.06;;;66.44;28.94
72925;BME280;61070;50.794;7.054;2022-07-12T12:52:03;101723.69;;;31.26;29.58
72925;BME280;61070;50.794;7.054;2022-07-12T12:54:35;101726.78;;;-130.12;29.47
72925;BME280;61070;50.794;7.054;2022-07-12T12:57:06;101726.72;;;-97.61;29.24
72925;BME280;61070;50.794;7.054;2022-07-12T12:59:32;101726.88;;;-72.89;27.91
72925;BME280;61070;50.794;7.054;2022-07-12T13:01:58;101728.00;;;-50.77;26.01
72925;BME280;61070;50.794;7.054;2022-07-12T13:06:53;101717.41;;;84.69;26.58
72925;BME280;61070;50.794;7.054;2022-07-12T13:09:18;101715.50;;;144.67;26.17
72925;BME280;61070;50.794;7.054;2022-07-12T13:11:48;101706.44;;;142.06;26.85
72925;BME280;61070;50.794;7.054;2022-07-12T13:14:13;101722.47;;;-144.43;24.82
72925;BME280;61070;50.794;7.054;2022-07-12T13:16:38;101714.19;;;42.99;25.62
72925;BME280;61070;50.794;7.054;2022-07-12T13:19:05;101716.47;;;-2.60;25.03